sensor_id;sensor_type;location;lat;lon;timestamp;temperature;humidity
12180;DHT22;6153;51.490;6.586;2022-08-01T00:00:56;19.50;99.90
12180;DHT22;6153;51.490;6.586;2022-08-01T00:03:57;19.50;99.90
12180;DHT22;6153;51.490;6.586;2022-08-01T00:06:58;19.50;99.90
12180;DHT22;6153;51.490;6.586;2022-08-01T00:09:58;19.40;99.90
12180;DHT22;6153;51.490;6.586;2022-08-01T00:12:59;19.40;99.90
12180;DHT22;6153;51.490;6.586;2022-08-01T00:15:59;19.40;99.90
12180;DHT22;6153;51.490;6.586;2022-08-01T00:19:00;19.40;99.90
12180;DHT22;6153;51.490;6.586;2022-08-01T00:22:00;19.40;99.90
12180;DHT22;6153;51.490;6.586;2022-08-01T00:25:01;19.40;99.90
12180;DHT22;6153;51.490;6.586;2022-08-01T00:28:01;19.40;99.90
12180;DHT22;6153;51.490;6.586;2022-08-01T00:31:02;19.40;99.90
12180;DHT22;6153;51.490;6.586;2022-08-01T00:34:02;19.40;99.90
12180;DHT22;6153;51.490;6.586;2022-08-01T00:37:03;19.40;99.90
12180;DHT22;6153;51.490;6.586;2022-08-01T00:40:04;19.40;99.90
12180;DHT22;6153;51.490;6.586;2022-08-01T00:43:04;19.40;99.90
12180;DHT22;6153;51.490;6.586;2022-08-01T00:46:05;19.40;99.90
12180;DHT22;6153;51.490;6.586;2022-08-01T00:49:05;19.40;99.90
12180;DHT22;6153;51.490;6.586;2022-08-01T00:52:06;19.40;99.90
12180;DHT22;6153;51.490;6.586;2022-08-01T00:55:09;19.30;99.90
12180;DHT22;6153;51.490;6.586;2022-08-01T00:58:09;19.30;99.90
12180;DHT22;6153;51.490;6.586;2022-08-01T01:01:10;19.20;99.90
12180;DHT22;6153;51.490;6.586;2022-08-01T01:04:11;19.20;99.90
12180;DHT22;6153;51.490;6.586;2022-08-01T01:10:15;19.20;99.90
12180;DHT22;6153;51.490;6.586;2022-08-01T01:13:23;19.10;99.90
12180;DHT22;6153;51.490;6.586;2022-08-01T01:16:26;19.10;99.90
12180;DHT22;6153;51.490;6.586;2022-08-01T01:19:28;19.10;99.90
12180;DHT22;6153;51.490;6.586;2022-08-01T01:32:04;19.20;99.90
12180;DHT22;6153;51.490;6.586;2022-08-01T01:35:06;19.10;99.90
12180;DHT22;6153;51.490;6.586;2022-08-01T01:38:09;19.20;99.90
12180;DHT22;6153;51.490;6.586;2022-08-01T01:41:11;19.20;99.90
12180;DHT22;6153;51.490;6.586;2022-08-01T01:44:12;19.20;99.90
12180;DHT22;6153;51.490;6.586;2022-08-01T01:47:13;19.20;99.90
12180;DHT22;6153;51.490;6.586;2022-08-01T01:50:14;19.20;99.90
12180;DHT22;6153;51.490;6.586;2022-08-01T01:53:16;19.20;99.90
12180;DHT22;6153;51.490;6.586;2022-08-01T01:56:17;19.20;99.90
12180;DHT22;6153;51.490;6.586;2022-08-01T01:59:19;19.20;99.90
12180;DHT22;6153;51.490;6.586;2022-08-01T02:02:21;19.20;99.90
12180;DHT22;6153;51.490;6.586;2022-08-01T02:05:22;19.20;99.90
12180;DHT22;6153;51.490;6.586;2022-08-01T02:08:24;19.20;99.90
12180;DHT22;6153;51.490;6.586;2022-08-01T02:11:25;19.20;99.90
12180;DHT22;6153;51.490;6.586;2022-08-01T02:14:25;19.20;99.90
12180;DHT22;6153;51.490;6.586;2022-08-01T02:17:27;19.20;99.90
12180;DHT22;6153;51.490;6.586;2022-08-01T02:20:29;19.20;99.90
12180;DHT22;6153;51.490;6.586;2022-08-01T02:23:34;19.20;99.90
12180;DHT22;6153;51.490;6.586;2022-08-01T02:26:36;19.20;99.90
12180;DHT22;6153;51.490;6.586;2022-08-01T02:30:12;19.20;99.90
12180;DHT22;6153;51.490;6.586;2022-08-01T02:33:07;19.20;99.90
12180;DHT22;6153;51.490;6.586;2022-08-01T02:36:09;19.20;99.90
12180;DHT22;6153;51.490;6.586;2022-08-01T02:39:12;19.10;99.90
12180;DHT22;6153;51.490;6.586;2022-08-01T02:42:13;19.10;99.90
12180;DHT22;6153;51.490;6.586;2022-08-01T02:45:17;19.20;99.90
12180;DHT22;6153;51.490;6.586;2022-08-01T02:48:18;19.20;99.90
12180;DHT22;6153;51.490;6.586;2022-08-01T02:51:19;19.20;99.90
12180;DHT22;6153;51.490;6.586;2022-08-01T02:54:22;19.20;99.90
12180;DHT22;6153;51.490;6.586;2022-08-01T02:57:23;19.10;99.90
12180;DHT22;6153;51.490;6.586;2022-08-01T03:00:25;19.10;99.90
12180;DHT22;6153;51.490;6.586;2022-08-01T03:03:25;19.10;99.90
12180;DHT22;6153;51.490;6.586;2022-08-01T03:06:26;19.10;99.90
12180;DHT22;6153;51.490;6.586;2022-08-01T03:09:27;19.10;99.90
12180;DHT22;6153;51.490;6.586;2022-08-01T03:12:29;19.00;99.90
12180;DHT22;6153;51.490;6.586;2022-08-01T03:15:32;19.00;99.90
12180;DHT22;6153;51.490;6.586;2022-08-01T03:18:33;19.00;99.90
12180;DHT22;6153;51.490;6.586;2022-08-01T03:21:34;19.00;99.90
12180;DHT22;6153;51.490;6.586;2022-08-01T03:24:36;19.00;99.90
12180;DHT22;6153;51.490;6.586;2022-08-01T03:27:38;19.00;99.90
12180;DHT22;6153;51.490;6.586;2022-08-01T03:30:40;19.00;99.90
12180;DHT22;6153;51.490;6.586;2022-08-01T03:33:42;19.00;99.90
12180;DHT22;6153;51.490;6.586;2022-08-01T03:36:45;19.00;99.90
12180;DHT22;6153;51.490;6.586;2022-08-01T03:39:47;19.00;99.90
12180;DHT22;6153;51.490;6.586;2022-08-01T03:42:50;19.00;99.90
12180;DHT22;6153;51.490;6.586;2022-08-01T03:45:52;19.00;99.90
12180;DHT22;6153;51.490;6.586;2022-08-01T03:48:54;18.90;99.90
12180;DHT22;6153;51.490;6.586;2022-08-01T03:51:55;18.90;99.90
12180;DHT22;6153;51.490;6.586;2022-08-01T03:54:58;18.90;99.90
12180;DHT22;6153;51.490;6.586;2022-08-01T03:57:59;18.90;99.90
12180;DHT22;6153;51.490;6.586;2022-08-01T04:01:00;18.90;99.90
12180;DHT22;6153;51.490;6.586;2022-08-01T04:04:01;18.90;99.90
12180;DHT22;6153;51.490;6.586;2022-08-01T04:07:02;19.00;99.90
12180;DHT22;6153;51.490;6.586;2022-08-01T04:10:06;19.00;99.90
12180;DHT22;6153;51.490;6.586;2022-08-01T04:13:07;19.00;99.90
12180;DHT22;6153;51.490;6.586;2022-08-01T04:16:07;19.00;99.90
12180;DHT22;6153;51.490;6.586;2022-08-01T04:19:08;18.90;99.90
12180;DHT22;6153;51.490;6.586;2022-08-01T04:22:09;18.90;99.90
12180;DHT22;6153;51.490;6.586;2022-08-01T04:25:21;18.90;99.90
12180;DHT22;6153;51.490;6.586;2022-08-01T04:28:23;18.90;99.90
12180;DHT22;6153;51.490;6.586;2022-08-01T04:31:24;18.90;99.90
12180;DHT22;6153;51.490;6.586;2022-08-01T04:34:26;18.90;99.90
12180;DHT22;6153;51.490;6.586;2022-08-01T04:37:28;18.90;99.90
12180;DHT22;6153;51.490;6.586;2022-08-01T04:40:30;19.00;99.90
12180;DHT22;6153;51.490;6.586;2022-08-01T04:43:31;19.00;99.90
12180;DHT22;6153;51.490;6.586;2022-08-01T04:46:32;19.00;99.90
12180;DHT22;6153;51.490;6.586;2022-08-01T04:49:34;19.00;99.90
12180;DHT22;6153;51.490;6.586;2022-08-01T04:52:35;19.00;99.90
12180;DHT22;6153;51.490;6.586;2022-08-01T04:55:36;18.90;99.90
12180;DHT22;6153;51.490;6.586;2022-08-01T04:58:36;18.90;99.90
12180;DHT22;6153;51.490;6.586;2022-08-01T05:01:37;19.00;99.90
12180;DHT22;6153;51.490;6.586;2022-08-01T05:04:38;18.90;99.90
12180;DHT22;6153;51.490;6.586;2022-08-01T05:07:40;18.90;99.90
12180;DHT22;6153;51.490;6.586;2022-08-01T05:10:40;18.90;99.90
12180;DHT22;6153;51.490;6.586;2022-08-01T05:13:41;18.90;99.90
12180;DHT22;6153;51.490;6.586;2022-08-01T05:16:41;18.90;99.90
12180;DHT22;6153;51.490;6.586;2022-08-01T05:19:42;18.90;99.90
12180;DHT22;6153;51.490;6.586;2022-08-01T05:22:43;18.80;99.90
12180;DHT22;6153;51.490;6.586;2022-08-01T05:25:43;18.80;99.90
12180;DHT22;6153;51.490;6.586;2022-08-01T05:28:44;18.90;99.90
12180;DHT22;6153;51.490;6.586;2022-08-01T05:31:44;18.80;99.90
12180;DHT22;6153;51.490;6.586;2022-08-01T05:34:45;18.90;99.90
12180;DHT22;6153;51.490;6.586;2022-08-01T05:37:45;19.00;99.90
12180;DHT22;6153;51.490;6.586;2022-08-01T05:40:46;19.20;99.90
12180;DHT22;6153;51.490;6.586;2022-08-01T05:43:47;19.30;99.90
12180;DHT22;6153;51.490;6.586;2022-08-01T05:46:47;19.30;99.90
12180;DHT22;6153;51.490;6.586;2022-08-01T05:49:48;19.30;99.90
12180;DHT22;6153;51.490;6.586;2022-08-01T05:52:48;19.30;99.90
12180;DHT22;6153;51.490;6.586;2022-08-01T05:55:49;19.40;99.90
12180;DHT22;6153;51.490;6.586;2022-08-01T05:58:50;19.50;99.90
12180;DHT22;6153;51.490;6.586;2022-08-01T06:01:50;19.60;99.90
12180;DHT22;6153;51.490;6.586;2022-08-01T06:04:51;19.60;99.90
12180;DHT22;6153;51.490;6.586;2022-08-01T06:07:51;19.80;99.90
12180;DHT22;6153;51.490;6.586;2022-08-01T06:10:52;20.00;99.90
12180;DHT22;6153;51.490;6.586;2022-08-01T06:13:53;20.10;99.90
12180;DHT22;6153;51.490;6.586;2022-08-01T06:16:53;20.20;99.90
12180;DHT22;6153;51.490;6.586;2022-08-01T06:19:54;20.10;99.90
12180;DHT22;6153;51.490;6.586;2022-08-01T06:22:56;20.30;99.90
12180;DHT22;6153;51.490;6.586;2022-08-01T06:25:56;20.90;99.90
12180;DHT22;6153;51.490;6.586;2022-08-01T06:28:58;20.90;99.90
12180;DHT22;6153;51.490;6.586;2022-08-01T06:31:58;21.20;99.90
12180;DHT22;6153;51.490;6.586;2022-08-01T06:34:59;20.80;99.90
12180;DHT22;6153;51.490;6.586;2022-08-01T06:37:59;20.60;99.90
12180;DHT22;6153;51.490;6.586;2022-08-01T06:41:00;20.90;99.90
12180;DHT22;6153;51.490;6.586;2022-08-01T06:44:01;21.10;99.90
12180;DHT22;6153;51.490;6.586;2022-08-01T06:47:04;21.20;99.90
12180;DHT22;6153;51.490;6.586;2022-08-01T06:50:05;21.30;99.90
12180;DHT22;6153;51.490;6.586;2022-08-01T06:53:06;21.10;99.90
12180;DHT22;6153;51.490;6.586;2022-08-01T06:56:07;21.00;99.90
12180;DHT22;6153;51.490;6.586;2022-08-01T06:59:08;20.80;99.90
12180;DHT22;6153;51.490;6.586;2022-08-01T07:02:09;20.80;99.90
12180;DHT22;6153;51.490;6.586;2022-08-01T07:05:09;20.70;99.90
12180;DHT22;6153;51.490;6.586;2022-08-01T07:08:10;20.50;99.90
12180;DHT22;6153;51.490;6.586;2022-08-01T07:11:10;20.50;99.90
12180;DHT22;6153;51.490;6.586;2022-08-01T07:14:11;20.70;99.90
12180;DHT22;6153;51.490;6.586;2022-08-01T07:17:11;20.90;99.90
12180;DHT22;6153;51.490;6.586;2022-08-01T07:20:14;20.70;99.90
12180;DHT22;6153;51.490;6.586;2022-08-01T07:23:15;20.50;99.90
12180;DHT22;6153;51.490;6.586;2022-08-01T07:26:15;20.40;99.90
12180;DHT22;6153;51.490;6.586;2022-08-01T07:29:16;20.60;99.90
12180;DHT22;6153;51.490;6.586;2022-08-01T07:32:16;21.00;99.90
12180;DHT22;6153;51.490;6.586;2022-08-01T07:35:17;21.10;99.90
12180;DHT22;6153;51.490;6.586;2022-08-01T07:38:17;21.20;99.90
12180;DHT22;6153;51.490;6.586;2022-08-01T07:41:18;21.40;99.90
12180;DHT22;6153;51.490;6.586;2022-08-01T07:44:19;21.50;99.90
12180;DHT22;6153;51.490;6.586;2022-08-01T07:47:25;21.70;99.90
12180;DHT22;6153;51.490;6.586;2022-08-01T07:50:26;22.30;99.90
12180;DHT22;6153;51.490;6.586;2022-08-01T07:53:26;21.90;99.90
12180;DHT22;6153;51.490;6.586;2022-08-01T07:56:27;22.00;99.90
12180;DHT22;6153;51.490;6.586;2022-08-01T07:59:27;21.90;99.90
12180;DHT22;6153;51.490;6.586;2022-08-01T08:02:28;21.90;99.90
12180;DHT22;6153;51.490;6.586;2022-08-01T08:05:28;21.90;99.90
12180;DHT22;6153;51.490;6.586;2022-08-01T08:08:29;22.10;99.90
12180;DHT22;6153;51.490;6.586;2022-08-01T08:11:30;22.60;99.90
12180;DHT22;6153;51.490;6.586;2022-08-01T08:14:30;22.80;99.90
12180;DHT22;6153;51.490;6.586;2022-08-01T08:17:31;23.00;99.90
12180;DHT22;6153;51.490;6.586;2022-08-01T08:20:32;22.50;99.90
12180;DHT22;6153;51.490;6.586;2022-08-01T08:23:32;22.50;99.90
12180;DHT22;6153;51.490;6.586;2022-08-01T08:26:53;22.60;99.90
12180;DHT22;6153;51.490;6.586;2022-08-01T08:29:54;22.20;99.90
12180;DHT22;6153;51.490;6.586;2022-08-01T08:32:55;22.20;99.90
12180;DHT22;6153;51.490;6.586;2022-08-01T08:35:55;22.20;99.90
12180;DHT22;6153;51.490;6.586;2022-08-01T08:38:56;22.40;99.90
12180;DHT22;6153;51.490;6.586;2022-08-01T08:41:58;22.50;99.90
12180;DHT22;6153;51.490;6.586;2022-08-01T08:44:59;22.50;99.90
12180;DHT22;6153;51.490;6.586;2022-08-01T08:48:00;22.50;99.90
12180;DHT22;6153;51.490;6.586;2022-08-01T08:51:00;22.70;99.90
12180;DHT22;6153;51.490;6.586;2022-08-01T08:54:01;23.10;99.90
12180;DHT22;6153;51.490;6.586;2022-08-01T08:57:03;23.00;99.90
12180;DHT22;6153;51.490;6.586;2022-08-01T09:00:04;23.00;99.90
12180;DHT22;6153;51.490;6.586;2022-08-01T09:03:04;23.60;99.90
12180;DHT22;6153;51.490;6.586;2022-08-01T09:06:05;23.70;99.90
12180;DHT22;6153;51.490;6.586;2022-08-01T09:09:07;23.30;99.90
12180;DHT22;6153;51.490;6.586;2022-08-01T09:12:08;23.20;99.90
12180;DHT22;6153;51.490;6.586;2022-08-01T09:15:08;22.90;99.90
12180;DHT22;6153;51.490;6.586;2022-08-01T09:21:28;23.50;99.90
12180;DHT22;6153;51.490;6.586;2022-08-01T09:24:29;23.30;99.90
12180;DHT22;6153;51.490;6.586;2022-08-01T09:27:30;23.30;99.90
12180;DHT22;6153;51.490;6.586;2022-08-01T09:30:37;24.00;99.90
12180;DHT22;6153;51.490;6.586;2022-08-01T09:36:55;24.10;99.90
12180;DHT22;6153;51.490;6.586;2022-08-01T09:39:56;23.90;99.90
12180;DHT22;6153;51.490;6.586;2022-08-01T09:43:10;23.40;99.90
12180;DHT22;6153;51.490;6.586;2022-08-01T09:46:10;23.50;99.90
12180;DHT22;6153;51.490;6.586;2022-08-01T09:49:14;23.90;99.90
12180;DHT22;6153;51.490;6.586;2022-08-01T09:52:19;23.80;99.90
12180;DHT22;6153;51.490;6.586;2022-08-01T09:55:20;23.70;99.90
12180;DHT22;6153;51.490;6.586;2022-08-01T09:58:21;23.50;99.90
12180;DHT22;6153;51.490;6.586;2022-08-01T10:01:22;23.80;99.90
12180;DHT22;6153;51.490;6.586;2022-08-01T10:04:23;24.20;99.90
12180;DHT22;6153;51.490;6.586;2022-08-01T10:07:24;24.00;99.90
12180;DHT22;6153;51.490;6.586;2022-08-01T10:10:25;23.70;99.90
12180;DHT22;6153;51.490;6.586;2022-08-01T10:13:25;23.40;99.90
12180;DHT22;6153;51.490;6.586;2022-08-01T10:16:27;23.30;99.90
12180;DHT22;6153;51.490;6.586;2022-08-01T10:19:29;22.90;99.90
12180;DHT22;6153;51.490;6.586;2022-08-01T10:22:31;22.70;99.90
12180;DHT22;6153;51.490;6.586;2022-08-01T10:25:35;22.50;99.90
12180;DHT22;6153;51.490;6.586;2022-08-01T10:28:36;22.60;99.90
12180;DHT22;6153;51.490;6.586;2022-08-01T10:31:38;22.90;99.90
12180;DHT22;6153;51.490;6.586;2022-08-01T10:34:39;22.70;99.90
12180;DHT22;6153;51.490;6.586;2022-08-01T10:37:39;22.80;99.90
12180;DHT22;6153;51.490;6.586;2022-08-01T10:40:43;22.80;99.90
12180;DHT22;6153;51.490;6.586;2022-08-01T10:43:44;23.00;99.90
12180;DHT22;6153;51.490;6.586;2022-08-01T10:46:47;23.00;99.90
12180;DHT22;6153;51.490;6.586;2022-08-01T10:49:58;22.80;99.90
12180;DHT22;6153;51.490;6.586;2022-08-01T10:56:07;23.70;99.90
12180;DHT22;6153;51.490;6.586;2022-08-01T10:59:10;23.60;99.90
12180;DHT22;6153;51.490;6.586;2022-08-01T11:02:25;23.90;99.90
12180;DHT22;6153;51.490;6.586;2022-08-01T11:05:26;23.60;99.90
12180;DHT22;6153;51.490;6.586;2022-08-01T11:08:28;23.40;99.90
12180;DHT22;6153;51.490;6.586;2022-08-01T11:11:31;23.50;99.90
12180;DHT22;6153;51.490;6.586;2022-08-01T11:14:32;23.70;99.90
12180;DHT22;6153;51.490;6.586;2022-08-01T11:17:33;23.40;99.90
12180;DHT22;6153;51.490;6.586;2022-08-01T11:20:35;23.60;99.90
12180;DHT22;6153;51.490;6.586;2022-08-01T11:23:46;24.10;99.90
12180;DHT22;6153;51.490;6.586;2022-08-01T11:33:10;25.00;99.90
12180;DHT22;6153;51.490;6.586;2022-08-01T11:39:12;24.70;99.90
12180;DHT22;6153;51.490;6.586;2022-08-01T11:42:17;25.30;99.90
12180;DHT22;6153;51.490;6.586;2022-08-01T11:45:17;25.80;99.90
12180;DHT22;6153;51.490;6.586;2022-08-01T11:48:22;25.10;99.90
12180;DHT22;6153;51.490;6.586;2022-08-01T11:51:22;25.30;99.90
12180;DHT22;6153;51.490;6.586;2022-08-01T11:54:33;25.70;99.90
12180;DHT22;6153;51.490;6.586;2022-08-01T11:57:34;25.40;99.90
12180;DHT22;6153;51.490;6.586;2022-08-01T12:00:36;24.60;99.90
12180;DHT22;6153;51.490;6.586;2022-08-01T12:03:37;24.10;99.90
12180;DHT22;6153;51.490;6.586;2022-08-01T12:06:37;24.00;99.90
12180;DHT22;6153;51.490;6.586;2022-08-01T12:09:39;23.80;99.90
12180;DHT22;6153;51.490;6.586;2022-08-01T12:12:46;23.40;99.90
12180;DHT22;6153;51.490;6.586;2022-08-01T12:15:47;23.40;99.90
12180;DHT22;6153;51.490;6.586;2022-08-01T12:18:48;23.80;99.90
12180;DHT22;6153;51.490;6.586;2022-08-01T12:22:04;24.40;99.90
12180;DHT22;6153;51.490;6.586;2022-08-01T12:25:09;25.30;99.90
12180;DHT22;6153;51.490;6.586;2022-08-01T12:28:10;25.60;99.90
12180;DHT22;6153;51.490;6.586;2022-08-01T12:31:13;25.90;99.90
12180;DHT22;6153;51.490;6.586;2022-08-01T12:34:26;25.90;99.90
12180;DHT22;6153;51.490;6.586;2022-08-01T12:37:30;26.00;99.90
12180;DHT22;6153;51.490;6.586;2022-08-01T12:40:32;25.20;99.90
12180;DHT22;6153;51.490;6.586;2022-08-01T12:43:33;25.10;99.90
12180;DHT22;6153;51.490;6.586;2022-08-01T12:46:34;25.10;99.90
12180;DHT22;6153;51.490;6.586;2022-08-01T12:49:35;24.60;99.90
12180;DHT22;6153;51.490;6.586;2022-08-01T12:52:36;24.50;99.90
12180;DHT22;6153;51.490;6.586;2022-08-01T12:55:43;24.60;99.90
12180;DHT22;6153;51.490;6.586;2022-08-01T12:58:44;25.00;99.90
12180;DHT22;6153;51.490;6.586;2022-08-01T13:01:44;25.10;99.90
12180;DHT22;6153;51.490;6.586;2022-08-01T13:04:51;25.60;99.90
12180;DHT22;6153;51.490;6.586;2022-08-01T13:07:52;25.80;99.90
12180;DHT22;6153;51.490;6.586;2022-08-01T13:10:59;25.20;99.90
12180;DHT22;6153;51.490;6.586;2022-08-01T13:14:00;25.10;99.90
12180;DHT22;6153;51.490;6.586;2022-08-01T13:17:01;25.60;99.90
12180;DHT22;6153;51.490;6.586;2022-08-01T13:20:02;25.30;99.90
12180;DHT22;6153;51.490;6.586;2022-08-01T13:23:12;25.20;99.90
12180;DHT22;6153;51.490;6.586;2022-08-01T13:26:13;25.20;99.90
12180;DHT22;6153;51.490;6.586;2022-08-01T13:29:17;24.80;99.90
12180;DHT22;6153;51.490;6.586;2022-08-01T13:32:19;24.80;99.90
12180;DHT22;6153;51.490;6.586;2022-08-01T13:35:20;24.40;99.90
12180;DHT22;6153;51.490;6.586;2022-08-01T13:38:21;24.20;99.90
12180;DHT22;6153;51.490;6.586;2022-08-01T13:41:41;24.20;99.90
12180;DHT22;6153;51.490;6.586;2022-08-01T13:44:42;24.00;99.90
12180;DHT22;6153;51.490;6.586;2022-08-01T13:47:45;24.10;99.90
12180;DHT22;6153;51.490;6.586;2022-08-01T13:50:45;24.10;99.90
12180;DHT22;6153;51.490;6.586;2022-08-01T13:53:46;24.00;99.90
12180;DHT22;6153;51.490;6.586;2022-08-01T13:56:47;24.00;99.90
12180;DHT22;6153;51.490;6.586;2022-08-01T13:59:47;24.10;99.90
12180;DHT22;6153;51.490;6.586;2022-08-01T14:02:48;23.90;99.90
12180;DHT22;6153;51.490;6.586;2022-08-01T14:05:48;23.90;99.90
12180;DHT22;6153;51.490;6.586;2022-08-01T14:08:49;23.90;99.90
12180;DHT22;6153;51.490;6.586;2022-08-01T14:11:50;24.30;99.90
12180;DHT22;6153;51.490;6.586;2022-08-01T14:14:52;23.90;99.90
12180;DHT22;6153;51.490;6.586;2022-08-01T14:17:52;24.10;99.90
12180;DHT22;6153;51.490;6.586;2022-08-01T14:20:53;24.10;99.90
12180;DHT22;6153;51.490;6.586;2022-08-01T14:23:53;23.90;99.90
12180;DHT22;6153;51.490;6.586;2022-08-01T14:26:54;24.40;99.90
12180;DHT22;6153;51.490;6.586;2022-08-01T14:29:54;24.40;99.90
12180;DHT22;6153;51.490;6.586;2022-08-01T14:32:55;24.70;99.90
12180;DHT22;6153;51.490;6.586;2022-08-01T14:35:55;24.60;99.90
12180;DHT22;6153;51.490;6.586;2022-08-01T14:38:56;24.60;99.90
12180;DHT22;6153;51.490;6.586;2022-08-01T14:41:56;24.60;99.90
12180;DHT22;6153;51.490;6.586;2022-08-01T14:44:57;24.60;99.90
12180;DHT22;6153;51.490;6.586;2022-08-01T14:47:58;24.50;99.90
12180;DHT22;6153;51.490;6.586;2022-08-01T14:50:58;24.60;99.90
12180;DHT22;6153;51.490;6.586;2022-08-01T14:54:02;24.70;99.90
12180;DHT22;6153;51.490;6.586;2022-08-01T14:57:03;24.80;99.90
12180;DHT22;6153;51.490;6.586;2022-08-01T15:00:04;24.90;99.90
12180;DHT22;6153;51.490;6.586;2022-08-01T15:03:05;24.70;99.90
12180;DHT22;6153;51.490;6.586;2022-08-01T15:06:05;24.60;99.90
12180;DHT22;6153;51.490;6.586;2022-08-01T15:09:06;24.50;99.90
12180;DHT22;6153;51.490;6.586;2022-08-01T15:12:07;24.40;99.90
12180;DHT22;6153;51.490;6.586;2022-08-01T15:15:08;24.40;99.90
12180;DHT22;6153;51.490;6.586;2022-08-01T15:18:08;24.30;99.90
12180;DHT22;6153;51.490;6.586;2022-08-01T15:21:09;24.40;99.90
12180;DHT22;6153;51.490;6.586;2022-08-01T15:24:09;24.00;99.90
12180;DHT22;6153;51.490;6.586;2022-08-01T15:27:10;24.30;99.90
12180;DHT22;6153;51.490;6.586;2022-08-01T15:30:10;24.40;99.90
12180;DHT22;6153;51.490;6.586;2022-08-01T15:33:11;24.50;99.90
12180;DHT22;6153;51.490;6.586;2022-08-01T15:36:12;24.30;99.90
12180;DHT22;6153;51.490;6.586;2022-08-01T15:39:13;24.60;99.90
12180;DHT22;6153;51.490;6.586;2022-08-01T15:42:15;24.30;99.90
12180;DHT22;6153;51.490;6.586;2022-08-01T15:45:17;24.00;99.90
12180;DHT22;6153;51.490;6.586;2022-08-01T15:48:19;24.00;99.90
12180;DHT22;6153;51.490;6.586;2022-08-01T15:51:19;24.20;99.90
12180;DHT22;6153;51.490;6.586;2022-08-01T15:54:20;24.30;99.90
12180;DHT22;6153;51.490;6.586;2022-08-01T15:57:20;24.20;99.90
12180;DHT22;6153;51.490;6.586;2022-08-01T16:00:21;24.80;99.90
12180;DHT22;6153;51.490;6.586;2022-08-01T16:03:22;25.00;99.90
12180;DHT22;6153;51.490;6.586;2022-08-01T16:06:22;25.60;99.90
12180;DHT22;6153;51.490;6.586;2022-08-01T16:09:23;25.50;99.90
12180;DHT22;6153;51.490;6.586;2022-08-01T16:12:23;24.70;99.90
12180;DHT22;6153;51.490;6.586;2022-08-01T16:15:24;24.40;99.90
12180;DHT22;6153;51.490;6.586;2022-08-01T16:18:25;24.90;99.90
12180;DHT22;6153;51.490;6.586;2022-08-01T16:21:25;26.10;99.90
12180;DHT22;6153;51.490;6.586;2022-08-01T16:24:26;26.50;99.90
12180;DHT22;6153;51.490;6.586;2022-08-01T16:27:29;26.70;99.90
12180;DHT22;6153;51.490;6.586;2022-08-01T16:30:33;25.90;99.90
12180;DHT22;6153;51.490;6.586;2022-08-01T16:33:33;27.10;99.90
12180;DHT22;6153;51.490;6.586;2022-08-01T16:36:34;26.60;99.90
12180;DHT22;6153;51.490;6.586;2022-08-01T16:39:34;26.40;99.90
12180;DHT22;6153;51.490;6.586;2022-08-01T16:42:35;27.00;99.90
12180;DHT22;6153;51.490;6.586;2022-08-01T16:45:36;27.50;99.90
12180;DHT22;6153;51.490;6.586;2022-08-01T16:48:37;27.60;99.90
12180;DHT22;6153;51.490;6.586;2022-08-01T16:51:37;25.60;99.90
12180;DHT22;6153;51.490;6.586;2022-08-01T16:54:38;24.60;99.90
12180;DHT22;6153;51.490;6.586;2022-08-01T16:57:38;25.60;99.90
12180;DHT22;6153;51.490;6.586;2022-08-01T17:00:39;26.60;99.90
12180;DHT22;6153;51.490;6.586;2022-08-01T17:03:42;26.30;99.90
12180;DHT22;6153;51.490;6.586;2022-08-01T17:06:43;26.60;99.90
12180;DHT22;6153;51.490;6.586;2022-08-01T17:09:45;26.50;99.90
12180;DHT22;6153;51.490;6.586;2022-08-01T17:12:46;26.90;99.90
12180;DHT22;6153;51.490;6.586;2022-08-01T17:15:46;25.30;99.90
12180;DHT22;6153;51.490;6.586;2022-08-01T17:18:47;24.80;99.90
12180;DHT22;6153;51.490;6.586;2022-08-01T17:21:48;24.60;99.90
12180;DHT22;6153;51.490;6.586;2022-08-01T17:24:48;24.60;99.90
12180;DHT22;6153;51.490;6.586;2022-08-01T17:27:50;24.00;99.90
12180;DHT22;6153;51.490;6.586;2022-08-01T17:30:53;23.90;99.90
12180;DHT22;6153;51.490;6.586;2022-08-01T17:33:53;23.60;99.90
12180;DHT22;6153;51.490;6.586;2022-08-01T17:36:54;23.60;99.90
12180;DHT22;6153;51.490;6.586;2022-08-01T17:39:54;25.00;99.90
12180;DHT22;6153;51.490;6.586;2022-08-01T17:42:55;26.20;99.90
12180;DHT22;6153;51.490;6.586;2022-08-01T17:45:56;27.50;99.90
12180;DHT22;6153;51.490;6.586;2022-08-01T17:48:57;27.40;99.90
12180;DHT22;6153;51.490;6.586;2022-08-01T17:51:59;27.90;99.90
12180;DHT22;6153;51.490;6.586;2022-08-01T17:55:00;27.40;99.90
12180;DHT22;6153;51.490;6.586;2022-08-01T17:58:01;27.20;99.90
12180;DHT22;6153;51.490;6.586;2022-08-01T18:01:04;26.50;99.90
12180;DHT22;6153;51.490;6.586;2022-08-01T18:04:04;26.30;99.90
12180;DHT22;6153;51.490;6.586;2022-08-01T18:07:05;26.60;99.90
12180;DHT22;6153;51.490;6.586;2022-08-01T18:10:06;26.40;99.90
12180;DHT22;6153;51.490;6.586;2022-08-01T18:13:06;26.60;99.90
12180;DHT22;6153;51.490;6.586;2022-08-01T18:16:07;26.60;99.90
12180;DHT22;6153;51.490;6.586;2022-08-01T18:19:10;26.50;99.90
12180;DHT22;6153;51.490;6.586;2022-08-01T18:22:10;26.70;99.90
12180;DHT22;6153;51.490;6.586;2022-08-01T18:25:11;27.30;99.90
12180;DHT22;6153;51.490;6.586;2022-08-01T18:28:12;26.90;99.90
12180;DHT22;6153;51.490;6.586;2022-08-01T18:31:13;26.70;99.90
12180;DHT22;6153;51.490;6.586;2022-08-01T18:34:16;26.00;99.90
12180;DHT22;6153;51.490;6.586;2022-08-01T18:37:16;26.30;99.90
12180;DHT22;6153;51.490;6.586;2022-08-01T18:40:17;25.90;99.90
12180;DHT22;6153;51.490;6.586;2022-08-01T18:43:18;26.10;99.90
12180;DHT22;6153;51.490;6.586;2022-08-01T18:46:18;25.80;99.90
12180;DHT22;6153;51.490;6.586;2022-08-01T18:49:19;25.40;99.90
12180;DHT22;6153;51.490;6.586;2022-08-01T18:52:19;25.10;99.90
12180;DHT22;6153;51.490;6.586;2022-08-01T18:55:20;24.90;99.90
12180;DHT22;6153;51.490;6.586;2022-08-01T18:58:20;24.20;99.90
12180;DHT22;6153;51.490;6.586;2022-08-01T19:01:21;23.60;99.90
12180;DHT22;6153;51.490;6.586;2022-08-01T19:04:22;23.00;99.90
12180;DHT22;6153;51.490;6.586;2022-08-01T19:07:22;22.70;99.90
12180;DHT22;6153;51.490;6.586;2022-08-01T19:10:23;22.20;99.90
12180;DHT22;6153;51.490;6.586;2022-08-01T19:13:23;22.10;99.90
12180;DHT22;6153;51.490;6.586;2022-08-01T19:16:27;21.90;99.90
12180;DHT22;6153;51.490;6.586;2022-08-01T19:19:28;21.80;99.90
12180;DHT22;6153;51.490;6.586;2022-08-01T19:22:28;21.70;99.90
12180;DHT22;6153;51.490;6.586;2022-08-01T19:25:29;21.50;99.90
12180;DHT22;6153;51.490;6.586;2022-08-01T19:28:31;21.30;99.90
12180;DHT22;6153;51.490;6.586;2022-08-01T19:31:32;21.30;99.90
12180;DHT22;6153;51.490;6.586;2022-08-01T19:34:46;21.20;99.90
12180;DHT22;6153;51.490;6.586;2022-08-01T19:37:48;21.20;99.90
12180;DHT22;6153;51.490;6.586;2022-08-01T19:40:50;20.90;99.90
12180;DHT22;6153;51.490;6.586;2022-08-01T19:43:51;20.80;99.90
12180;DHT22;6153;51.490;6.586;2022-08-01T19:46:51;20.60;99.90
12180;DHT22;6153;51.490;6.586;2022-08-01T19:49:52;20.50;99.90
12180;DHT22;6153;51.490;6.586;2022-08-01T19:52:54;20.30;99.90
12180;DHT22;6153;51.490;6.586;2022-08-01T19:55:54;20.20;99.90